Time;durP1;ratioP1;P1;durP2;ratioP2;P2;SDS_P1;SDS_P2;PMS_P1;PMS_P2;Temp;Humidity;BMP_temperature;BMP_pressure;BME280_temperature;BME280_humidity;BME280_pressure;Samples;Min_cycle;Max_cycle;Signal;HPM_P1;HPM_P2
2023/08/06 00:01:26;;;;;;;2.53;0.82;;;22.40;1.00;;;;;;4914902;29;20044;-41
2023/08/06 00:03:53;;;;;;;1.70;0.68;;;22.50;1.00;;;;;;4913002;29;20044;-43
2023/08/06 00:06:20;;;;;;;1.25;0.75;;;22.40;1.00;;;;;;4916721;29;20044;-40
2023/08/06 00:08:47;;;;;;;1.95;0.95;;;22.40;1.00;;;;;;4921434;29;20055;-42
2023/08/06 00:11:14;;;;;;;1.00;0.65;;;22.40;1.00;;;;;;4920216;29;20040;-40
2023/08/06 00:13:41;;;;;;;2.17;0.80;;;22.40;1.00;;;;;;4919834;29;20040;-41
2023/08/06 00:16:12;;;;;;;1.92;1.10;;;22.40;1.00;;;;;;4912170;29;20048;-39
2023/08/06 00:18:39;;;;;;;3.90;0.70;;;22.40;1.00;;;;;;4919915;29;20672;-43
2023/08/06 00:21:05;;;;;;;1.63;0.90;;;22.40;1.00;;;;;;4919818;29;20108;-41
2023/08/06 00:23:32;;;;;;;2.03;0.70;;;22.40;1.00;;;;;;4912976;29;20075;-43
2023/08/06 00:25:59;;;;;;;1.42;0.88;;;22.40;1.00;;;;;;4916362;29;20048;-39
2023/08/06 00:28:26;;;;;;;2.15;1.25;;;22.40;1.00;;;;;;4919140;29;20048;-45
2023/08/06 00:30:54;;;;;;;1.52;0.70;;;22.40;1.00;;;;;;4902888;29;20116;-40
2023/08/06 00:33:22;;;;;;;2.35;1.17;;;22.40;1.00;;;;;;4919308;29;20444;-42
2023/08/06 00:35:49;;;;;;;3.05;1.00;;;22.30;1.00;;;;;;4917458;29;20059;-40
2023/08/06 00:38:16;;;;;;;2.25;0.80;;;22.40;1.00;;;;;;4914921;29;20048;-41
2023/08/06 00:40:43;;;;;;;1.65;0.90;;;22.30;1.00;;;;;;4916041;29;20515;-40
2023/08/06 00:43:10;;;;;;;3.38;0.73;;;22.30;1.00;;;;;;4894376;29;20503;-42
2023/08/06 00:45:37;;;;;;;1.98;0.63;;;22.30;1.00;;;;;;4913693;29;20052;-40
2023/08/06 00:48:06;;;;;;;2.08;0.82;;;22.30;1.00;;;;;;4901533;29;20056;-43
2023/08/06 00:50:33;;;;;;;1.13;0.80;;;22.30;1.00;;;;;;4918519;29;20040;-40
2023/08/06 00:53:01;;;;;;;2.10;0.65;;;22.30;1.00;;;;;;4918556;29;20122;-41
2023/08/06 00:55:29;;;;;;;1.40;0.90;;;22.30;1.00;;;;;;4900545;29;20085;-40
2023/08/06 00:57:56;;;;;;;1.38;0.77;;;22.30;1.00;;;;;;4920631;29;20055;-40
2023/08/06 01:00:24;;;;;;;5.03;0.90;;;22.30;1.00;;;;;;4922139;29;20048;-43
2023/08/06 01:02:52;;;;;;;2.83;1.00;;;22.30;1.00;;;;;;4921841;29;20350;-42
2023/08/06 01:05:21;;;;;;;1.10;0.60;;;22.30;1.00;;;;;;4914236;29;20122;-42
2023/08/06 01:08:05;;;;;;;1.48;0.60;;;22.30;1.00;;;;;;4920301;29;20108;-40
2023/08/06 01:11:03;;;;;;;1.48;0.82;;;22.30;1.00;;;;;;4904780;29;20075;-41
2023/08/06 01:13:35;;;;;;;1.15;0.90;;;22.30;1.00;;;;;;4908782;29;20048;-40
2023/08/06 01:16:05;;;;;;;1.42;0.70;;;22.30;1.00;;;;;;4902237;29;20044;-42
2023/08/06 01:18:32;;;;;;;3.85;1.00;;;22.20;1.00;;;;;;4905066;29;20408;-41
2023/08/06 01:21:01;;;;;;;1.55;0.98;;;22.20;1.00;;;;;;4889491;29;20051;-40
2023/08/06 01:23:27;;;;;;;2.58;0.90;;;22.20;1.00;;;;;;4920096;29;20466;-40
2023/08/06 01:26:03;;;;;;;1.52;0.73;;;22.20;1.00;;;;;;4904558;29;20591;-41
2023/08/06 01:28:30;;;;;;;2.58;0.90;;;22.20;1.00;;;;;;4896003;29;20048;-41
2023/08/06 01:31:01;;;;;;;1.83;1.08;;;22.20;1.00;;;;;;4907272;29;20048;-41
2023/08/06 01:33:32;;;;;;;1.95;0.70;;;22.20;1.00;;;;;;4898926;29;20508;-40
2023/08/06 01:35:59;;;;;;;2.10;0.80;;;22.20;1.00;;;;;;4902183;29;20052;-40
2023/08/06 01:38:28;;;;;;;1.50;0.60;;;22.20;1.00;;;;;;4923105;29;20127;-40
2023/08/06 01:40:54;;;;;;;1.88;0.88;;;22.20;1.00;;;;;;4905722;29;20445;-41
2023/08/06 01:43:21;;;;;;;1.83;1.02;;;22.20;1.00;;;;;;4918713;29;20040;-40
2023/08/06 01:45:48;;;;;;;1.90;1.00;;;22.20;1.00;;;;;;4900192;29;20492;-40
2023/08/06 01:48:15;;;;;;;1.35;0.68;;;22.20;1.00;;;;;;4914850;29;20500;-40
2023/08/06 01:50:43;;;;;;;2.05;0.60;;;22.20;1.00;;;;;;4922979;29;20096;-40
2023/08/06 01:53:10;;;;;;;2.10;0.93;;;22.20;1.00;;;;;;4905934;29;20504;-41
2023/08/06 01:55:36;;;;;;;3.53;1.23;;;22.20;1.00;;;;;;4896111;29;20051;-41
2023/08/06 01:58:03;;;;;;;2.03;1.00;;;22.20;1.00;;;;;;4920658;29;20059;-41
2023/08/06 02:00:30;;;;;;;3.78;1.25;;;22.20;1.00;;;;;;4899923;29;20072;-40
2023/08/06 02:02:57;;;;;;;1.83;1.10;;;22.10;1.00;;;;;;4905875;29;20052;-40
2023/08/06 02:05:24;;;;;;;2.35;1.15;;;22.10;1.00;;;;;;4921720;29;20036;-40
2023/08/06 02:07:51;;;;;;;3.38;0.90;;;22.20;1.00;;;;;;4921436;29;20044;-40
2023/08/06 02:10:17;;;;;;;2.25;1.10;;;22.10;1.00;;;;;;4907276;29;20063;-41
2023/08/06 02:12:44;;;;;;;2.50;1.00;;;22.10;1.00;;;;;;4922535;29;20492;-40
2023/08/06 02:15:11;;;;;;;1.83;0.98;;;22.10;1.00;;;;;;4902781;29;20044;-45
2023/08/06 02:17:38;;;;;;;2.42;1.67;;;22.10;1.00;;;;;;4904289;29;20044;-40
2023/08/06 02:20:06;;;;;;;4.20;1.40;;;22.10;1.00;;;;;;4905387;29;20044;-40
2023/08/06 02:22:34;;;;;;;2.08;1.13;;;22.10;1.00;;;;;;4898938;29;20055;-41
2023/08/06 02:25:00;;;;;;;2.33;1.15;;;22.10;1.00;;;;;;4914090;29;20040;-42
2023/08/06 02:27:27;;;;;;;1.65;1.00;;;22.10;1.00;;;;;;4919532;29;20050;-40
2023/08/06 02:29:54;;;;;;;2.30;1.05;;;22.10;1.00;;;;;;4914555;29;20556;-40
2023/08/06 02:32:21;;;;;;;1.85;1.30;;;22.10;1.00;;;;;;4921765;29;20502;-40
2023/08/06 02:34:48;;;;;;;1.65;1.25;;;22.10;1.00;;;;;;4920004;29;20048;-40
2023/08/06 02:37:15;;;;;;;1.63;1.42;;;22.10;1.00;;;;;;4905472;29;20103;-41
2023/08/06 02:39:42;;;;;;;2.85;1.40;;;22.10;1.00;;;;;;4905180;29;20115;-41
2023/08/06 02:42:09;;;;;;;2.80;1.63;;;22.10;1.00;;;;;;4918022;29;20056;-40
2023/08/06 02:44:36;;;;;;;2.95;1.83;;;22.10;1.00;;;;;;4903888;29;20040;-40
2023/08/06 02:47:04;;;;;;;1.80;1.20;;;22.10;1.00;;;;;;4922194;29;20048;-42
2023/08/06 02:49:31;;;;;;;1.50;1.10;;;22.10;1.00;;;;;;4903888;29;20587;-40
2023/08/06 02:51:58;;;;;;;3.65;1.10;;;22.00;1.00;;;;;;4904524;29;20052;-40
2023/08/06 02:54:25;;;;;;;3.63;1.08;;;22.00;1.00;;;;;;4897378;29;20076;-43
2023/08/06 02:56:52;;;;;;;1.80;1.30;;;22.00;1.00;;;;;;4902453;29;20416;-40
2023/08/06 02:59:26;;;;;;;2.83;1.60;;;22.00;1.00;;;;;;4898604;29;20135;-42
2023/08/06 03:02:06;;;;;;;1.90;1.10;;;22.00;1.00;;;;;;4903158;29;20496;-41
2023/08/06 03:04:49;;;;;;;3.65;1.60;;;22.00;1.00;;;;;;4904006;29;20060;-40
2023/08/06 03:07:18;;;;;;;1.92;1.17;;;22.00;1.00;;;;;;4904146;29;20449;-40
2023/08/06 03:09:53;;;;;;;3.85;1.60;;;22.00;1.00;;;;;;4904777;29;20048;-40
2023/08/06 03:12:20;;;;;;;3.00;1.50;;;22.00;1.00;;;;;;4904794;29;20055;-41
2023/08/06 03:14:48;;;;;;;2.33;1.40;;;22.00;1.00;;;;;;4904203;29;20048;-40
2023/08/06 03:17:16;;;;;;;2.15;1.15;;;22.00;1.00;;;;;;4905056;29;20059;-40
2023/08/06 03:19:43;;;;;;;2.50;1.48;;;22.00;1.00;;;;;;4918855;29;20044;-40
2023/08/06 03:22:11;;;;;;;2.75;1.38;;;22.00;1.00;;;;;;4904438;29;20048;-40
2023/08/06 03:24:38;;;;;;;2.90;1.30;;;22.00;1.00;;;;;;4899680;29;20117;-39
2023/08/06 03:27:07;;;;;;;1.50;1.10;;;22.00;1.00;;;;;;4901532;29;20040;-40
2023/08/06 03:29:36;;;;;;;2.75;1.50;;;22.00;1.00;;;;;;4898295;29;20107;-40
2023/08/06 03:32:03;;;;;;;2.30;1.20;;;22.00;1.00;;;;;;4904630;29;20075;-39
2023/08/06 03:34:31;;;;;;;2.03;1.35;;;22.00;1.00;;;;;;4903074;29;20556;-39
2023/08/06 03:36:57;;;;;;;2.42;1.48;;;22.00;1.00;;;;;;4893812;29;20050;-40
2023/08/06 03:39:26;;;;;;;2.13;1.35;;;22.00;1.00;;;;;;4896855;29;20516;-40
2023/08/06 03:41:53;;;;;;;2.97;1.23;;;21.90;1.00;;;;;;4904100;29;20036;-40
2023/08/06 03:44:21;;;;;;;2.03;1.45;;;21.90;1.00;;;;;;4894021;29;20037;-40
2023/08/06 03:46:48;;;;;;;4.03;1.55;;;21.90;1.00;;;;;;4899808;29;20040;-40
2023/08/06 03:49:15;;;;;;;1.17;1.02;;;21.90;1.00;;;;;;4895535;29;20524;-43
2023/08/06 03:51:42;;;;;;;3.10;1.48;;;21.90;1.00;;;;;;4920626;29;20043;-43
2023/08/06 03:54:09;;;;;;;1.55;1.10;;;21.90;1.00;;;;;;4902986;29;20040;-40
2023/08/06 03:56:36;;;;;;;1.58;1.10;;;21.90;1.00;;;;;;4915704;29;20047;-40
2023/08/06 03:59:03;;;;;;;2.70;1.20;;;21.90;1.00;;;;;;4903885;29;20107;-41
2023/08/06 04:01:30;;;;;;;2.03;1.30;;;21.90;1.00;;;;;;4904132;29;20044;-40
2023/08/06 04:03:57;;;;;;;1.80;1.42;;;21.90;1.00;;;;;;4903921;29;20068;-41
2023/08/06 04:06:24;;;;;;;1.60;1.02;;;21.90;1.00;;;;;;4899334;29;20584;-40
2023/08/06 04:08:52;;;;;;;2.17;1.20;;;21.90;1.00;;;;;;4903333;29;20107;-40
2023/08/06 04:11:18;;;;;;;1.73;1.10;;;21.90;1.00;;;;;;4903590;29;20456;-41
2023/08/06 04:13:45;;;;;;;3.00;1.27;;;21.90;1.00;;;;;;4919894;29;20040;-40
2023/08/06 04:16:14;;;;;;;2.30;1.17;;;21.90;1.00;;;;;;4917758;29;20050;-40
2023/08/06 04:18:41;;;;;;;2.45;1.58;;;21.90;1.00;;;;;;4912389;29;20048;-41
2023/08/06 04:21:08;;;;;;;2.47;1.60;;;21.90;1.00;;;;;;4919939;29;20096;-41
2023/08/06 04:23:35;;;;;;;2.03;1.40;;;21.90;1.00;;;;;;4895560;29;20068;-42
2023/08/06 04:26:05;;;;;;;1.58;0.93;;;21.90;1.00;;;;;;4901124;29;20389;-41
2023/08/06 04:28:34;;;;;;;1.83;1.35;;;21.90;1.00;;;;;;4902770;29;20036;-41
2023/08/06 04:31:01;;;;;;;1.70;1.17;;;21.90;1.00;;;;;;4899298;29;20112;-40
2023/08/06 04:33:30;;;;;;;2.00;1.20;;;21.90;1.00;;;;;;4895804;29;20036;-40
2023/08/06 04:35:59;;;;;;;1.70;1.40;;;21.80;1.00;;;;;;4898203;29;20086;-40
2023/08/06 04:38:27;;;;;;;2.05;1.45;;;21.90;1.00;;;;;;4902740;29;20040;-42
2023/08/06 04:40:55;;;;;;;2.40;1.58;;;21.90;1.00;;;;;;4903537;29;20459;-40
2023/08/06 04:43:24;;;;;;;2.72;1.20;;;21.80;1.00;;;;;;4903502;29;20074;-41
2023/08/06 04:45:53;;;;;;;2.63;1.15;;;21.80;1.00;;;;;;4885730;29;20092;-40
2023/08/06 04:48:20;;;;;;;1.70;1.15;;;21.80;1.00;;;;;;4920116;29;20048;-39
2023/08/06 04:50:49;;;;;;;1.60;1.17;;;21.80;1.00;;;;;;4918340;29;20051;-45
2023/08/06 04:53:16;;;;;;;1.42;1.30;;;21.80;1.00;;;;;;4918550;29;20048;-41
2023/08/06 04:55:43;;;;;;;1.75;1.42;;;21.80;1.00;;;;;;4918142;29;20166;-40
2023/08/06 04:58:10;;;;;;;3.78;1.42;;;21.80;1.00;;;;;;4919274;29;20126;-40
2023/08/06 05:00:37;;;;;;;2.05;1.42;;;21.80;1.00;;;;;;4912369;29;20056;-41
2023/08/06 05:03:05;;;;;;;4.57;1.50;;;21.80;1.00;;;;;;4920008;29;20099;-44
2023/08/06 05:05:32;;;;;;;2.22;1.67;;;21.80;1.00;;;;;;4916960;29;20495;-40
2023/08/06 05:07:59;;;;;;;2.22;1.40;;;21.80;1.00;;;;;;4911652;29;20123;-43
2023/08/06 05:10:26;;;;;;;2.58;1.52;;;21.80;1.00;;;;;;4919083;29;20527;-39
2023/08/06 05:12:54;;;;;;;1.73;1.23;;;21.80;1.00;;;;;;4918997;29;20046;-39
2023/08/06 05:15:21;;;;;;;1.80;1.27;;;21.80;1.00;;;;;;4916362;29;20190;-39
2023/08/06 05:17:48;;;;;;;1.63;0.82;;;21.80;1.00;;;;;;4920178;29;20052;-41
2023/08/06 05:20:15;;;;;;;2.05;1.25;;;21.70;1.00;;;;;;4920262;29;20072;-40
2023/08/06 05:22:43;;;;;;;1.75;1.13;;;21.80;1.00;;;;;;4902017;29;20040;-41
2023/08/06 05:25:14;;;;;;;2.15;1.75;;;21.70;1.00;;;;;;4916979;29;20036;-40
2023/08/06 05:27:41;;;;;;;2.40;1.20;;;21.70;1.00;;;;;;4908337;29;20104;-42
2023/08/06 05:30:09;;;;;;;1.40;1.23;;;21.70;1.00;;;;;;4912392;29;20048;-43
2023/08/06 05:32:36;;;;;;;3.45;1.33;;;21.70;1.00;;;;;;4911692;29;20127;-40
2023/08/06 05:35:03;;;;;;;1.63;1.40;;;21.70;1.00;;;;;;4913922;29;20041;-41
2023/08/06 05:37:30;;;;;;;2.90;1.05;;;21.70;1.00;;;;;;4913388;29;20135;-41
2023/08/06 05:39:57;;;;;;;3.45;1.35;;;21.70;1.00;;;;;;4920011;29;20051;-40
2023/08/06 05:42:23;;;;;;;2.55;1.40;;;21.70;1.00;;;;;;4919687;29;20048;-40
2023/08/06 05:44:50;;;;;;;4.88;1.33;;;21.70;1.00;;;;;;4922277;29;20047;-41
2023/08/06 05:47:17;;;;;;;2.03;1.33;;;21.70;1.00;;;;;;4924007;29;20052;-41
2023/08/06 05:49:44;;;;;;;2.33;1.50;;;21.70;1.00;;;;;;4906306;29;20037;-41
2023/08/06 05:52:11;;;;;;;4.20;1.85;;;21.70;1.00;;;;;;4924290;29;20048;-41
2023/08/06 05:54:37;;;;;;;2.55;1.30;;;21.70;1.00;;;;;;4926166;29;20040;-41
2023/08/06 05:57:05;;;;;;;1.98;1.23;;;21.70;1.00;;;;;;4919712;29;20040;-41
2023/08/06 05:59:32;;;;;;;1.80;1.23;;;21.70;1.00;;;;;;4923126;29;20059;-40
2023/08/06 06:01:58;;;;;;;1.73;1.20;;;21.70;1.00;;;;;;4923386;29;20112;-41
2023/08/06 06:04:25;;;;;;;1.90;1.23;;;21.70;1.00;;;;;;4915465;29;20044;-40
2023/08/06 06:06:52;;;;;;;1.88;1.35;;;21.70;1.00;;;;;;4919187;29;20123;-40
2023/08/06 06:09:19;;;;;;;4.20;1.20;;;21.70;1.00;;;;;;4921577;29;20044;-40
2023/08/06 06:11:47;;;;;;;1.35;1.15;;;21.70;1.00;;;;;;4903958;29;20044;-40
2023/08/06 06:14:14;;;;;;;2.22;1.50;;;21.70;1.00;;;;;;4919907;29;20051;-41
2023/08/06 06:16:41;;;;;;;1.52;1.20;;;21.70;1.00;;;;;;4918812;29;20048;-40
2023/08/06 06:19:08;;;;;;;2.38;1.35;;;21.70;1.00;;;;;;4921576;29;20071;-43
2023/08/06 06:21:34;;;;;;;4.85;1.13;;;21.70;1.00;;;;;;4922035;29;20046;-40
2023/08/06 06:24:01;;;;;;;1.65;1.30;;;21.70;1.00;;;;;;4915815;29;20048;-40
2023/08/06 06:26:28;;;;;;;1.40;1.25;;;21.70;1.00;;;;;;4918044;29;20390;-40
2023/08/06 06:28:55;;;;;;;2.30;1.40;;;21.70;1.00;;;;;;4915200;29;20064;-41
2023/08/06 06:31:22;;;;;;;3.53;1.45;;;21.70;1.00;;;;;;4916340;29;20040;-42
2023/08/06 06:33:48;;;;;;;2.40;1.55;;;21.70;1.00;;;;;;4905622;29;20052;-40
2023/08/06 06:36:15;;;;;;;3.28;1.10;;;21.70;1.00;;;;;;4920983;29;20056;-40
2023/08/06 06:38:42;;;;;;;1.25;1.00;;;21.70;1.00;;;;;;4923431;29;20066;-44
2023/08/06 06:41:09;;;;;;;2.38;1.17;;;21.70;1.00;;;;;;4916248;29;20044;-41
2023/08/06 06:43:37;;;;;;;1.13;0.82;;;21.70;1.00;;;;;;4912986;29;20044;-42
2023/08/06 06:46:04;;;;;;;2.35;1.38;;;21.70;1.00;;;;;;4913599;29;20571;-40
2023/08/06 06:48:33;;;;;;;1.73;1.10;;;21.70;1.00;;;;;;4921226;29;20055;-42
2023/08/06 06:51:00;;;;;;;3.13;1.52;;;21.70;1.00;;;;;;4910089;29;20044;-40
2023/08/06 06:53:30;;;;;;;2.08;1.13;;;21.70;1.00;;;;;;4915532;29;20412;-40
2023/08/06 06:56:02;;;;;;;2.47;1.27;;;21.70;1.00;;;;;;4905842;29;20048;-40
2023/08/06 06:58:29;;;;;;;3.10;1.55;;;21.70;1.00;;;;;;4900798;29;20072;-40
2023/08/06 07:00:56;;;;;;;1.70;1.20;;;21.70;1.00;;;;;;4901556;29;20079;-42
2023/08/06 07:03:23;;;;;;;4.25;1.63;;;21.70;1.00;;;;;;4903700;29;20041;-39
2023/08/06 07:05:50;;;;;;;4.75;2.45;;;21.70;1.00;;;;;;4904181;29;20568;-40
2023/08/06 07:08:17;;;;;;;2.42;1.33;;;21.70;1.00;;;;;;4908275;29;20068;-40
2023/08/06 07:10:44;;;;;;;1.92;1.35;;;21.70;1.00;;;;;;4910701;29;20040;-40
2023/08/06 07:13:11;;;;;;;2.05;1.65;;;21.70;1.00;;;;;;4921577;29;20148;-41
2023/08/06 07:15:38;;;;;;;2.20;1.40;;;21.70;1.00;;;;;;4921430;29;20048;-41
2023/08/06 07:18:04;;;;;;;3.10;1.20;;;21.70;1.00;;;;;;4913677;29;20058;-40
2023/08/06 07:20:32;;;;;;;2.17;1.60;;;21.70;1.00;;;;;;4896823;29;20058;-41
2023/08/06 07:23:00;;;;;;;2.05;1.40;;;21.70;1.00;;;;;;4920715;29;20123;-40
2023/08/06 07:25:27;;;;;;;2.15;1.55;;;21.70;1.00;;;;;;4913132;29;20501;-41
2023/08/06 07:27:54;;;;;;;2.88;1.20;;;21.70;1.00;;;;;;4903774;29;20100;-41
2023/08/06 07:30:21;;;;;;;3.83;1.27;;;21.60;1.00;;;;;;4920791;29;20048;-42
2023/08/06 07:32:47;;;;;;;2.67;1.10;;;21.60;1.00;;;;;;4907919;29;20075;-41
2023/08/06 07:35:14;;;;;;;3.80;1.23;;;21.60;1.00;;;;;;4905993;29;20048;-39
2023/08/06 07:37:41;;;;;;;3.08;1.08;;;21.60;1.00;;;;;;4904602;29;20059;-41
2023/08/06 07:40:09;;;;;;;5.65;0.90;;;21.60;1.00;;;;;;4905526;29;20056;-41
2023/08/06 07:42:35;;;;;;;2.58;1.33;;;21.60;1.00;;;;;;4900131;29;20040;-41
2023/08/06 07:45:03;;;;;;;1.40;0.80;;;21.60;1.00;;;;;;4903310;29;20041;-40
2023/08/06 07:47:29;;;;;;;2.72;1.00;;;21.60;1.00;;;;;;4909149;29;20041;-40
2023/08/06 07:49:56;;;;;;;3.15;0.93;;;21.60;1.00;;;;;;4905829;29;20079;-42
2023/08/06 07:52:23;;;;;;;3.83;1.17;;;21.60;1.00;;;;;;4901586;29;20051;-40
2023/08/06 07:54:50;;;;;;;1.20;0.73;;;21.60;1.00;;;;;;4912564;29;20044;-41
2023/08/06 07:57:17;;;;;;;2.80;0.98;;;21.60;1.00;;;;;;4908015;29;20051;-40
2023/08/06 07:59:43;;;;;;;1.63;1.00;;;21.60;1.00;;;;;;4900953;29;20710;-41
2023/08/06 08:02:10;;;;;;;1.60;1.05;;;21.60;1.00;;;;;;4899977;29;20464;-40
2023/08/06 08:04:38;;;;;;;2.03;1.10;;;21.60;1.00;;;;;;4910805;29;20072;-41
2023/08/06 08:07:05;;;;;;;1.65;1.10;;;21.60;1.00;;;;;;4883530;29;20068;-41
2023/08/06 08:09:32;;;;;;;1.88;0.93;;;21.60;1.00;;;;;;4898602;29;20108;-40
2023/08/06 08:12:00;;;;;;;1.98;0.90;;;21.60;1.00;;;;;;4886884;29;20048;-42
2023/08/06 08:14:28;;;;;;;1.73;0.90;;;21.60;1.00;;;;;;4906841;29;20745;-40
2023/08/06 08:16:55;;;;;;;1.92;1.05;;;21.60;1.00;;;;;;4905318;29;20485;-40
2023/08/06 08:19:22;;;;;;;2.15;1.20;;;21.60;1.00;;;;;;4900772;29;20037;-40
2023/08/06 08:21:49;;;;;;;2.03;1.33;;;21.70;1.00;;;;;;4903642;29;20036;-40
2023/08/06 08:24:19;;;;;;;2.08;1.17;;;21.70;1.00;;;;;;4898398;29;20041;-42
2023/08/06 08:26:46;;;;;;;4.35;1.30;;;21.70;1.00;;;;;;4902312;29;20040;-40
2023/08/06 08:29:13;;;;;;;4.88;1.17;;;21.70;1.00;;;;;;4888488;29;20055;-39
2023/08/06 08:31:40;;;;;;;2.90;1.40;;;21.70;1.00;;;;;;4911455;29;20408;-40
2023/08/06 08:34:06;;;;;;;2.95;1.33;;;21.70;1.00;;;;;;4919666;29;20201;-39
2023/08/06 08:36:33;;;;;;;2.50;1.30;;;21.70;1.00;;;;;;4905082;29;20500;-40
2023/08/06 08:39:00;;;;;;;2.95;1.88;;;21.70;1.00;;;;;;4921699;29;20072;-41
2023/08/06 08:41:31;;;;;;;5.07;1.40;;;21.70;1.00;;;;;;4921326;29;20044;-39
2023/08/06 08:44:00;;;;;;;2.40;1.33;;;21.70;1.00;;;;;;4921369;29;20043;-40
2023/08/06 08:46:32;;;;;;;2.53;1.25;;;21.70;1.00;;;;;;4921634;29;20095;-40
2023/08/06 08:49:02;;;;;;;3.85;1.23;;;21.70;1.00;;;;;;4913626;29;20100;-41
2023/08/06 08:51:30;;;;;;;5.15;1.40;;;21.70;1.00;;;;;;4921203;29;20044;-40
2023/08/06 08:53:57;;;;;;;4.10;1.63;;;21.70;1.00;;;;;;4920831;29;20135;-40
2023/08/06 08:56:24;;;;;;;2.80;1.45;;;21.70;1.00;;;;;;4913905;29;20403;-41
2023/08/06 08:58:54;;;;;;;6.53;1.95;;;21.70;1.00;;;;;;4920943;29;20064;-40
2023/08/06 09:01:22;;;;;;;3.17;1.38;;;21.70;1.00;;;;;;4920677;29;20105;-40
2023/08/06 09:03:51;;;;;;;1.77;1.05;;;21.70;1.00;;;;;;4920257;29;20048;-43
2023/08/06 09:06:20;;;;;;;2.13;0.95;;;21.70;1.00;;;;;;4911708;29;20120;-45
2023/08/06 09:08:56;;;;;;;3.15;1.08;;;21.70;1.00;;;;;;4899445;29;20053;-41
2023/08/06 09:11:23;;;;;;;4.53;1.77;;;21.70;1.00;;;;;;4902857;29;20047;-42
2023/08/06 09:13:50;;;;;;;6.70;2.33;;;21.70;1.00;;;;;;4900296;29;20041;-41
2023/08/06 09:16:17;;;;;;;8.23;3.00;;;21.70;1.00;;;;;;4900945;29;20048;-41
2023/08/06 09:18:44;;;;;;;4.13;2.10;;;21.70;1.00;;;;;;4921067;29;20044;-45
2023/08/06 09:21:17;;;;;;;5.32;2.05;;;21.70;1.00;;;;;;4924372;29;20056;-43
2023/08/06 09:23:44;;;;;;;3.92;1.67;;;21.70;1.00;;;;;;4908093;29;20072;-44
2023/08/06 09:26:13;;;;;;;8.38;1.60;;;21.70;1.00;;;;;;4920083;29;20104;-41
2023/08/06 09:28:43;;;;;;;3.17;2.05;;;21.70;1.00;;;;;;4915701;29;20048;-44
2023/08/06 09:31:10;;;;;;;4.13;1.40;;;21.70;1.00;;;;;;4919955;29;20036;-42
2023/08/06 09:33:38;;;;;;;6.65;1.80;;;21.70;1.00;;;;;;4920716;29;20056;-41
2023/08/06 09:36:12;;;;;;;9.15;2.17;;;21.70;1.00;;;;;;4908333;29;20040;-42
2023/08/06 09:38:40;;;;;;;3.28;1.50;;;21.70;1.00;;;;;;4905332;29;20112;-39
2023/08/06 09:41:08;;;;;;;3.47;1.52;;;21.70;1.00;;;;;;4917707;29;20044;-41
2023/08/06 09:43:44;;;;;;;1.80;1.08;;;21.70;1.00;;;;;;4898720;29;20327;-40
2023/08/06 09:46:13;;;;;;;3.25;1.55;;;21.70;1.00;;;;;;4918808;29;20452;-40
2023/08/06 09:48:41;;;;;;;2.83;1.60;;;21.70;1.00;;;;;;4924028;29;20062;-40
2023/08/06 09:51:09;;;;;;;2.92;1.60;;;21.70;1.00;;;;;;4916643;29;20044;-43
2023/08/06 09:53:38;;;;;;;4.35;1.52;;;21.70;1.00;;;;;;4923924;29;20052;-41
2023/08/06 09:56:05;;;;;;;2.55;1.20;;;21.70;1.00;;;;;;4923907;29;20072;-41
2023/08/06 09:58:32;;;;;;;4.10;1.35;;;21.70;1.00;;;;;;4923446;29;20071;-40
2023/08/06 10:01:03;;;;;;;5.75;1.48;;;21.70;1.00;;;;;;4910524;29;20505;-42
2023/08/06 10:03:31;;;;;;;3.55;1.98;;;21.70;1.00;;;;;;4913280;29;20402;-41
2023/08/06 10:05:59;;;;;;;4.05;1.67;;;21.60;1.00;;;;;;4903791;29;20048;-41
2023/08/06 10:08:25;;;;;;;3.05;1.70;;;21.60;1.00;;;;;;4912037;29;20532;-41
2023/08/06 10:10:53;;;;;;;3.53;1.67;;;21.60;1.00;;;;;;4914678;29;20055;-41
2023/08/06 10:13:22;;;;;;;2.83;1.38;;;21.60;1.00;;;;;;4883112;29;20052;-41
2023/08/06 10:15:51;;;;;;;2.28;1.23;;;21.60;1.00;;;;;;4923563;29;20048;-41
2023/08/06 10:18:21;;;;;;;3.45;1.40;;;21.60;1.00;;;;;;4917819;29;20079;-43
2023/08/06 10:20:48;;;;;;;5.10;1.70;;;21.60;1.00;;;;;;4902481;29;20068;-40
2023/08/06 10:23:15;;;;;;;5.00;1.58;;;21.60;1.00;;;;;;4905210;29;20041;-41
2023/08/06 10:25:42;;;;;;;2.72;1.05;;;21.60;1.00;;;;;;4914198;29;20120;-41
2023/08/06 10:28:13;;;;;;;5.65;1.42;;;21.60;1.00;;;;;;4917202;29;20103;-41
2023/08/06 10:30:47;;;;;;;3.92;1.65;;;21.60;1.00;;;;;;4922156;29;20055;-41
2023/08/06 10:33:16;;;;;;;9.80;1.67;;;21.60;1.00;;;;;;4905479;29;20051;-44
2023/08/06 10:35:53;;;;;;;3.75;1.48;;;21.60;1.00;;;;;;4894021;29;20045;-45
2023/08/06 10:38:26;;;;;;;4.43;1.20;;;21.60;1.00;;;;;;4917491;29;20080;-41
2023/08/06 10:40:52;;;;;;;3.72;1.50;;;21.60;1.00;;;;;;4920813;29;20070;-40
2023/08/06 10:43:28;;;;;;;2.17;1.02;;;21.60;1.00;;;;;;4903043;29;20037;-41
2023/08/06 10:45:57;;;;;;;6.00;2.00;;;21.50;1.00;;;;;;4907979;29;20521;-41
2023/08/06 10:48:38;;;;;;;3.45;1.48;;;21.60;1.00;;;;;;4902187;29;20104;-41
2023/08/06 10:51:10;;;;;;;2.17;0.95;;;21.60;1.00;;;;;;4899366;29;20508;-41
2023/08/06 10:53:41;;;;;;;3.13;0.90;;;21.50;1.00;;;;;;4912896;29;20074;-41
2023/08/06 10:56:22;;;;;;;3.85;1.30;;;21.60;1.00;;;;;;4899109;29;20076;-41
2023/08/06 10:58:50;;;;;;;5.90;1.40;;;21.50;1.00;;;;;;4911718;29;20044;-42
2023/08/06 11:01:17;;;;;;;2.53;0.98;;;21.50;1.00;;;;;;4916635;29;20492;-40
2023/08/06 11:03:45;;;;;;;5.63;1.17;;;21.50;1.00;;;;;;4922339;29;20048;-43
2023/08/06 11:06:19;;;;;;;3.95;1.20;;;21.50;1.00;;;;;;4900787;29;20056;-42
2023/08/06 11:08:51;;;;;;;2.88;0.93;;;21.60;1.00;;;;;;4901633;29;20421;-40
2023/08/06 11:11:18;;;;;;;4.13;1.50;;;21.60;1.00;;;;;;4906078;29;20415;-41
2023/08/06 11:13:48;;;;;;;3.80;1.42;;;21.50;1.00;;;;;;4922532;29;20048;-40
2023/08/06 11:16:20;;;;;;;2.55;1.35;;;21.60;1.00;;;;;;4922142;29;20056;-42
2023/08/06 11:18:47;;;;;;;3.43;1.20;;;21.50;1.00;;;;;;4922522;29;20089;-40
2023/08/06 11:21:18;;;;;;;4.32;1.23;;;21.60;1.00;;;;;;4921966;29;20051;-41
2023/08/06 11:23:45;;;;;;;2.20;1.02;;;21.50;1.00;;;;;;4919581;29;20079;-40
2023/08/06 11:26:11;;;;;;;3.13;1.13;;;21.50;1.00;;;;;;4904321;29;20077;-42
2023/08/06 11:28:40;;;;;;;2.63;1.30;;;21.50;1.00;;;;;;4902909;29;20456;-43
2023/08/06 11:31:22;;;;;;;3.50;1.33;;;21.50;1.00;;;;;;4904862;29;20044;-43
2023/08/06 11:33:52;;;;;;;4.75;1.40;;;21.60;1.00;;;;;;4922815;29;20408;-41
2023/08/06 11:36:33;;;;;;;4.78;1.77;;;21.60;1.00;;;;;;4905318;29;20084;-42
2023/08/06 11:39:00;;;;;;;3.08;1.52;;;21.60;1.00;;;;;;4921522;29;20116;-42
2023/08/06 11:41:31;;;;;;;5.60;1.50;;;21.60;1.00;;;;;;4921735;29;20072;-45
2023/08/06 11:43:59;;;;;;;1.58;1.10;;;21.60;1.00;;;;;;4921371;29;20079;-41
2023/08/06 11:46:26;;;;;;;3.45;1.10;;;21.60;1.00;;;;;;4923376;29;20039;-42
2023/08/06 11:48:58;;;;;;;7.63;1.70;;;21.60;1.00;;;;;;4907902;29;20044;-44
2023/08/06 11:51:26;;;;;;;2.78;1.05;;;21.60;1.00;;;;;;4924741;29;20048;-44
2023/08/06 11:53:57;;;;;;;2.63;1.33;;;21.70;1.00;;;;;;4916212;29;20053;-43
2023/08/06 11:56:28;;;;;;;2.47;1.05;;;21.70;1.00;;;;;;4910857;29;20070;-42
2023/08/06 11:58:55;;;;;;;5.07;1.38;;;21.70;1.00;;;;;;4924708;29;20135;-42
2023/08/06 12:01:21;;;;;;;5.20;1.48;;;21.70;1.00;;;;;;4924071;29;20453;-44
2023/08/06 12:03:48;;;;;;;1.90;1.10;;;21.70;1.00;;;;;;4907611;29;20109;-42
2023/08/06 12:06:15;;;;;;;4.20;1.15;;;21.70;1.00;;;;;;4913156;29;20051;-42
2023/08/06 12:08:42;;;;;;;2.20;0.80;;;21.70;1.00;;;;;;4903409;29;20064;-43
2023/08/06 12:11:09;;;;;;;5.53;0.93;;;21.70;1.00;;;;;;4918886;29;20062;-42
2023/08/06 12:13:36;;;;;;;3.20;1.15;;;21.70;1.00;;;;;;4913642;29;20064;-42
2023/08/06 12:16:03;;;;;;;7.72;1.60;;;21.70;1.00;;;;;;4913590;29;20520;-43
2023/08/06 12:18:30;;;;;;;10.65;1.63;;;21.70;1.00;;;;;;4909867;29;20048;-42
2023/08/06 12:20:58;;;;;;;2.88;1.60;;;21.70;1.00;;;;;;4921466;29;20050;-44
2023/08/06 12:23:25;;;;;;;5.40;1.42;;;21.80;1.00;;;;;;4910021;29;20049;-41
2023/08/06 12:25:52;;;;;;;3.50;1.55;;;21.80;1.00;;;;;;4910213;29;20049;-41
2023/08/06 12:28:19;;;;;;;6.38;2.38;;;21.80;1.00;;;;;;4921633;29;20050;-44
2023/08/06 12:30:50;;;;;;;2.35;1.08;;;21.80;1.00;;;;;;4920601;29;20044;-41
2023/08/06 12:33:17;;;;;;;1.92;1.10;;;21.80;1.00;;;;;;4913514;29;20048;-42
2023/08/06 12:35:44;;;;;;;3.13;1.17;;;21.80;1.00;;;;;;4911712;29;20045;-43
2023/08/06 12:38:11;;;;;;;2.05;1.02;;;21.80;1.00;;;;;;4920267;29;20036;-43
2023/08/06 12:40:38;;;;;;;3.78;1.70;;;21.80;1.00;;;;;;4920366;29;20036;-51
2023/08/06 12:43:09;;;;;;;4.63;1.25;;;21.80;1.00;;;;;;4906086;29;20044;-43
2023/08/06 12:45:35;;;;;;;5.40;1.45;;;21.80;1.00;;;;;;4915130;29;20051;-45
2023/08/06 12:48:03;;;;;;;1.92;0.80;;;21.90;1.00;;;;;;4919583;29;20115;-42
2023/08/06 12:50:32;;;;;;;2.00;0.88;;;21.90;1.00;;;;;;4909061;29;20076;-46
2023/08/06 12:53:00;;;;;;;4.05;1.02;;;21.90;1.00;;;;;;4907274;29;20063;-42
2023/08/06 12:55:27;;;;;;;3.55;2.17;;;21.90;1.00;;;;;;4924314;29;20048;-42
2023/08/06 12:57:57;;;;;;;3.33;1.00;;;21.90;1.00;;;;;;4929368;29;20048;-42
2023/08/06 13:00:26;;;;;;;1.58;1.10;;;21.90;1.00;;;;;;4928596;29;20508;-43
2023/08/06 13:02:53;;;;;;;4.20;1.00;;;21.90;1.00;;;;;;4900079;29;20048;-43